Aviation Digital Data Service (ADDS)

Output produced by METARs form (1558 UTC 23 January 2019)
found at http://www.aviationweather.gov/metar/data/
 
Forecast for: DNEN (ENUGU , NG)
Text: TAF DNEN 230940Z 2312/2418 34010KT 8000 BKN012
Forecast period: 1200 to 1800 UTC 23 January 2019
Forecast type: FROM: standard forecast or significant change
Winds: from the NNW (340 degrees) at 12 MPH (10 knots; 5.1 m/s)
Visibility: 5 miles (8 km)
Ceiling: 1200 feet AGL
Clouds: broken clouds at 1200 feet AGL
Weather: no significant weather forecast for this period
Text: TEMPO 2313/2317 BKN012 FEW020CB
Forecast period: 1300 to 1700 UTC 23 January 2019
Forecast type: TEMPORARY: The following changes expected for less than half the time period
Visibility: missing
Ceiling: 1200 feet AGL
Clouds: broken clouds at 1200 feet AGL
few clouds at 2000 feet AGL
Weather: no significant weather forecast for this period
Text: BECMG 2318/2320 VR02KT SCT010
Forecast period: 1800 UTC 23 January 2019 to 1800 UTC 24 January 2019
Forecast type: BECOMING: Conditions expected to become as follows by 2000 UTC 23 January 2019
Winds: from the NNW (340 degrees) at 12 MPH (10 knots; 5.1 m/s)
Visibility: 5 miles (8 km)
Ceiling: at least 12,000 feet AGL
Clouds: scattered clouds at 1000 feet AGL
Weather: no significant weather forecast for this period